Bauer, Utah
Current Conditions -  °F | °C
As of 10:47 AM on Thursday 23 Oct 2014 (Local Time) from KPVU Reporting Station
Scattered Clouds Scattered Clouds  
Wind Chill: 57°   Ceiling: Unl
Heat Index: 57°   Visibility: 10mi
Dew Point: 30°   Wind: 5mph
Humidity: 36%   Direction: 120°ESE
Pressure: 30.2"   Gusts: NA
Location:  40.2688°N, 112.37°W
Report Text: KPVU 231647Z 12004KT 10SM SCT100 14/M01 A3020
Loading
Personal Weather Stations






























Interactive Weather Map
Tropical Storm Tracking
New forecast layout! Learn more

10-Day Weather Forecast

Advertisements
Track Severe Weather on mobile